Time;durP1;ratioP1;P1;durP2;ratioP2;P2;SDS_P1;SDS_P2;PMS_P1;PMS_P2;Temp;Humidity;BMP_temperature;BMP_pressure;BME280_temperature;BME280_humidity;BME280_pressure;Samples;Min_cycle;Max_cycle;Signal;HPM_P1;HPM_P2
2021/12/18 00:01:43;;;;;;;6.32;4.65;;;;;;;;;;143741;662;46021;-60
2021/12/18 00:04:10;;;;;;;6.53;4.60;;;;;;;;;;143739;666;47020;-60
2021/12/18 00:06:37;;;;;;;8.73;4.43;;;;;;;;;;143738;565;47010;-60
2021/12/18 00:09:05;;;;;;;7.25;4.53;;;;;;;;;;143739;581;46021;-60
2021/12/18 00:11:32;;;;;;;6.60;4.28;;;;;;;;;;143741;585;46020;-60
2021/12/18 00:13:59;;;;;;;6.37;4.78;;;;;;;;;;143741;644;47020;-60
2021/12/18 00:16:26;;;;;;;10.75;4.85;;;;;;;;;;143737;583;47011;-62
2021/12/18 00:18:56;;;;;;;7.93;4.72;;;;;;;;;;143739;565;46020;-60
2021/12/18 00:21:24;;;;;;;8.52;5.03;;;;;;;;;;143743;596;46020;-60
2021/12/18 00:23:52;;;;;;;7.93;5.10;;;;;;;;;;143733;673;47022;-60
2021/12/18 00:26:19;;;;;;;8.55;5.18;;;;;;;;;;143738;587;47010;-60
2021/12/18 00:28:47;;;;;;;5.95;4.57;;;;;;;;;;143738;569;46020;-61
2021/12/18 00:31:15;;;;;;;5.55;4.32;;;;;;;;;;143745;575;46020;-61
2021/12/18 00:33:42;;;;;;;9.00;4.93;;;;;;;;;;143741;588;47020;-60
2021/12/18 00:36:09;;;;;;;7.82;4.57;;;;;;;;;;143738;579;47010;-60
2021/12/18 00:38:38;;;;;;;10.57;5.85;;;;;;;;;;143738;579;46020;-60
2021/12/18 00:41:27;;;;;;;7.95;4.85;;;;;;;;;;143741;602;46020;-60
2021/12/18 00:44:04;;;;;;;9.55;5.60;;;;;;;;;;143741;579;47010;-60
2021/12/18 00:46:35;;;;;;;7.97;5.00;;;;;;;;;;143740;588;47010;-60
2021/12/18 00:49:04;;;;;;;7.85;4.93;;;;;;;;;;143735;572;46020;-61
2021/12/18 00:51:31;;;;;;;8.52;5.10;;;;;;;;;;143747;576;46020;-60
2021/12/18 00:53:58;;;;;;;11.80;5.10;;;;;;;;;;143741;615;47022;-61
2021/12/18 00:56:25;;;;;;;6.75;4.53;;;;;;;;;;143733;620;47010;-60
2021/12/18 00:58:52;;;;;;;12.70;5.43;;;;;;;;;;143741;573;46020;-60
2021/12/18 01:01:22;;;;;;;7.53;4.93;;;;;;;;;;143741;564;46020;-60
2021/12/18 01:03:50;;;;;;;9.82;5.35;;;;;;;;;;143739;566;47020;-61
2021/12/18 01:06:18;;;;;;;6.10;4.65;;;;;;;;;;143740;596;47010;-60
2021/12/18 01:08:46;;;;;;;10.10;5.20;;;;;;;;;;143742;593;46021;-60
2021/12/18 01:22:50;;;;;;;10.00;4.75;;;;;;;;;;143744;574;46022;-60
2021/12/18 01:25:19;;;;;;;6.30;4.53;;;;;;;;;;143736;569;47023;-61
2021/12/18 01:27:47;;;;;;;7.43;4.50;;;;;;;;;;143738;580;47010;-60
2021/12/18 01:30:15;;;;;;;8.55;5.32;;;;;;;;;;143740;571;46020;-60
2021/12/18 01:32:42;;;;;;;6.72;5.03;;;;;;;;;;143742;569;46021;-61
2021/12/18 01:35:09;;;;;;;6.70;4.72;;;;;;;;;;143740;611;47020;-62
2021/12/18 01:37:37;;;;;;;9.57;5.12;;;;;;;;;;143740;582;47011;-61
2021/12/18 01:40:05;;;;;;;7.32;4.87;;;;;;;;;;143734;571;46021;-61
2021/12/18 01:53:57;;;;;;;13.73;5.80;;;;;;;;;;143743;600;46021;-61
2021/12/18 01:56:26;;;;;;;7.85;5.57;;;;;;;;;;143740;569;47020;-61
2021/12/18 01:58:54;;;;;;;6.40;4.75;;;;;;;;;;143739;580;47010;-60
2021/12/18 02:01:22;;;;;;;8.38;5.35;;;;;;;;;;143740;640;46021;-60
2021/12/18 02:03:49;;;;;;;12.15;5.68;;;;;;;;;;143743;569;46020;-60
2021/12/18 02:06:16;;;;;;;9.23;5.80;;;;;;;;;;143731;573;48020;-61
2021/12/18 02:08:44;;;;;;;11.93;5.60;;;;;;;;;;143736;564;47010;-60
2021/12/18 02:19:52;;;;;;;10.20;5.37;;;;;;;;;;143737;569;46020;-60
2021/12/18 02:22:22;;;;;;;8.35;5.90;;;;;;;;;;143737;574;46020;-59
2021/12/18 02:24:49;;;;;;;10.82;6.05;;;;;;;;;;143743;600;46021;-60
2021/12/18 02:27:16;;;;;;;9.10;5.70;;;;;;;;;;143739;592;47020;-60
2021/12/18 02:29:43;;;;;;;9.90;6.95;;;;;;;;;;143740;659;47010;-60
2021/12/18 02:32:11;;;;;;;10.05;5.60;;;;;;;;;;143736;591;46021;-60
2021/12/18 02:34:40;;;;;;;8.85;5.50;;;;;;;;;;143742;601;46022;-61
2021/12/18 02:37:10;;;;;;;7.00;5.28;;;;;;;;;;143741;597;47021;-61
2021/12/18 02:39:55;;;;;;;10.50;5.53;;;;;;;;;;143739;599;47010;-61
2021/12/18 02:42:22;;;;;;;11.02;5.90;;;;;;;;;;143726;627;46020;-60
2021/12/18 02:44:50;;;;;;;11.77;5.18;;;;;;;;;;143741;647;46020;-61
2021/12/18 02:47:17;;;;;;;8.70;5.62;;;;;;;;;;143739;589;47020;-60
2021/12/18 02:49:50;;;;;;;6.95;4.85;;;;;;;;;;143739;590;47010;-60
2021/12/18 02:52:18;;;;;;;6.32;4.00;;;;;;;;;;143739;682;46020;-59
2021/12/18 02:54:46;;;;;;;8.20;4.20;;;;;;;;;;143742;570;46021;-59
2021/12/18 02:57:15;;;;;;;8.10;4.22;;;;;;;;;;143732;685;47022;-58
2021/12/18 02:59:47;;;;;;;5.78;3.80;;;;;;;;;;143740;611;47010;-55
2021/12/18 03:02:15;;;;;;;5.35;3.08;;;;;;;;;;143739;582;46021;-56
2021/12/18 03:04:46;;;;;;;3.75;2.30;;;;;;;;;;143743;616;46020;-56
2021/12/18 03:07:15;;;;;;;6.15;3.40;;;;;;;;;;143732;656;47021;-57
2021/12/18 03:23:48;;;;;;;3.20;2.90;;;;;;;;;;143725;605;47021;-55
2021/12/18 03:26:16;;;;;;;3.25;2.80;;;;;;;;;;143728;580;46020;-55
2021/12/18 03:28:43;;;;;;;3.50;3.20;;;;;;;;;;143728;588;47020;-54
2021/12/18 03:31:10;;;;;;;4.28;3.28;;;;;;;;;;143727;630;46020;-54
2021/12/18 03:33:37;;;;;;;5.07;4.03;;;;;;;;;;143727;574;46020;-53
2021/12/18 03:36:05;;;;;;;5.05;3.72;;;;;;;;;;143727;765;46020;-54
2021/12/18 03:38:32;;;;;;;4.47;3.60;;;;;;;;;;143725;587;47047;-53
2021/12/18 03:40:58;;;;;;;6.00;4.32;;;;;;;;;;143723;571;47010;-53
2021/12/18 03:43:26;;;;;;;5.22;3.78;;;;;;;;;;143726;578;46020;-53
2021/12/18 03:45:53;;;;;;;4.68;3.60;;;;;;;;;;143727;576;47018;-53
2021/12/18 03:48:19;;;;;;;4.15;3.65;;;;;;;;;;143725;699;47020;-53
2021/12/18 03:50:47;;;;;;;7.82;4.47;;;;;;;;;;143721;565;47010;-53
2021/12/18 03:53:14;;;;;;;5.68;3.72;;;;;;;;;;143721;574;46021;-53
2021/12/18 03:55:41;;;;;;;6.53;4.07;;;;;;;;;;143726;564;46020;-53
2021/12/18 03:58:08;;;;;;;5.32;3.70;;;;;;;;;;143724;577;47020;-53
2021/12/18 04:00:35;;;;;;;6.68;3.97;;;;;;;;;;143723;585;47010;-52
2021/12/18 04:03:04;;;;;;;6.87;3.97;;;;;;;;;;143724;652;46020;-53
2021/12/18 04:05:31;;;;;;;8.55;4.10;;;;;;;;;;143725;571;47020;-52
2021/12/18 04:08:08;;;;;;;5.93;3.95;;;;;;;;;;143739;580;47021;-52
2021/12/18 04:10:39;;;;;;;7.93;4.18;;;;;;;;;;143721;581;47010;-52
2021/12/18 04:13:08;;;;;;;4.37;3.50;;;;;;;;;;143734;574;46020;-52
2021/12/18 04:15:36;;;;;;;5.95;3.95;;;;;;;;;;143736;569;46021;-52
2021/12/18 04:18:06;;;;;;;7.32;4.57;;;;;;;;;;143740;582;47020;-53
2021/12/18 04:20:34;;;;;;;7.78;4.20;;;;;;;;;;143733;601;47011;-53
2021/12/18 04:23:01;;;;;;;5.62;3.90;;;;;;;;;;143737;663;46021;-52
2021/12/18 04:25:28;;;;;;;7.85;4.30;;;;;;;;;;143738;590;46020;-53
2021/12/18 04:28:00;;;;;;;6.50;4.18;;;;;;;;;;143738;575;47020;-53
2021/12/18 04:30:27;;;;;;;8.05;4.75;;;;;;;;;;143734;636;47010;-53
2021/12/18 04:32:54;;;;;;;4.90;3.97;;;;;;;;;;143737;564;46020;-54
2021/12/18 04:35:21;;;;;;;5.95;4.28;;;;;;;;;;143739;608;46020;-54
2021/12/18 04:37:48;;;;;;;8.15;4.95;;;;;;;;;;143733;586;47021;-54
2021/12/18 04:40:15;;;;;;;7.35;4.95;;;;;;;;;;143738;606;47010;-54
2021/12/18 04:42:42;;;;;;;8.93;4.28;;;;;;;;;;143738;569;46020;-54
2021/12/18 04:45:10;;;;;;;5.07;4.43;;;;;;;;;;143740;660;46021;-55
2021/12/18 04:47:37;;;;;;;7.50;4.43;;;;;;;;;;143738;579;47022;-55
2021/12/18 04:50:05;;;;;;;7.90;5.03;;;;;;;;;;143731;593;48010;-55
2021/12/18 04:52:32;;;;;;;7.75;4.53;;;;;;;;;;143737;671;46021;-56
2021/12/18 04:54:59;;;;;;;8.70;5.35;;;;;;;;;;143741;596;46020;-54
2021/12/18 04:57:26;;;;;;;11.30;4.97;;;;;;;;;;143739;574;47022;-55
2021/12/18 04:59:55;;;;;;;7.18;4.85;;;;;;;;;;143730;573;47010;-55
2021/12/18 05:02:32;;;;;;;6.53;4.80;;;;;;;;;;143734;623;46020;-55
2021/12/18 05:04:59;;;;;;;7.37;4.50;;;;;;;;;;143740;606;46020;-55
2021/12/18 05:07:27;;;;;;;6.95;4.75;;;;;;;;;;143739;605;47022;-55
2021/12/18 05:09:55;;;;;;;6.50;4.53;;;;;;;;;;143737;595;47010;-54
2021/12/18 05:12:22;;;;;;;6.07;4.45;;;;;;;;;;143738;610;46020;-55
2021/12/18 05:14:49;;;;;;;6.80;4.50;;;;;;;;;;143740;570;46021;-55
2021/12/18 05:17:19;;;;;;;13.00;5.43;;;;;;;;;;143736;670;47022;-55
2021/12/18 05:19:46;;;;;;;7.37;4.37;;;;;;;;;;143737;573;47010;-54
2021/12/18 05:22:13;;;;;;;11.38;4.10;;;;;;;;;;143738;580;46021;-55
2021/12/18 05:24:40;;;;;;;6.30;4.22;;;;;;;;;;143739;577;46020;-55
2021/12/18 05:27:07;;;;;;;7.47;4.28;;;;;;;;;;143731;569;47022;-55
2021/12/18 05:29:34;;;;;;;7.32;3.90;;;;;;;;;;143736;576;47011;-56
2021/12/18 05:32:02;;;;;;;13.88;9.70;;;;;;;;;;143738;575;46020;-55
2021/12/18 05:34:36;;;;;;;14.23;9.95;;;;;;;;;;143737;579;46020;-55
2021/12/18 05:39:49;;;;;;;18.67;14.00;;;;;;;;;;143737;566;47020;-55
2021/12/18 05:42:17;;;;;;;13.48;9.70;;;;;;;;;;143735;666;46020;-54
2021/12/18 05:44:44;;;;;;;10.27;6.47;;;;;;;;;;143740;583;46021;-55
2021/12/18 05:47:11;;;;;;;9.82;5.57;;;;;;;;;;143738;572;47020;-55
2021/12/18 05:49:38;;;;;;;11.12;5.35;;;;;;;;;;143737;578;47011;-55
2021/12/18 05:52:09;;;;;;;9.70;5.87;;;;;;;;;;143733;576;46021;-55
2021/12/18 05:54:39;;;;;;;8.93;5.53;;;;;;;;;;143740;571;46020;-55
2021/12/18 05:57:09;;;;;;;9.57;6.82;;;;;;;;;;143738;576;47021;-55
2021/12/18 05:59:37;;;;;;;8.25;6.20;;;;;;;;;;143737;764;47010;-54
2021/12/18 06:02:04;;;;;;;15.15;6.35;;;;;;;;;;143737;566;46020;-55
2021/12/18 06:04:31;;;;;;;8.07;5.62;;;;;;;;;;143740;609;46020;-56
2021/12/18 06:07:04;;;;;;;6.72;4.80;;;;;;;;;;143738;600;47021;-55
2021/12/18 06:09:37;;;;;;;6.82;4.45;;;;;;;;;;143738;625;47010;-55
2021/12/18 06:12:05;;;;;;;7.60;5.20;;;;;;;;;;143738;593;46020;-55
2021/12/18 06:14:32;;;;;;;9.75;5.57;;;;;;;;;;143738;598;46021;-55
2021/12/18 06:16:59;;;;;;;7.57;5.25;;;;;;;;;;143732;583;47020;-55
2021/12/18 06:19:26;;;;;;;8.63;5.00;;;;;;;;;;143737;688;47010;-56
2021/12/18 06:21:53;;;;;;;7.47;5.07;;;;;;;;;;143736;572;46021;-56
2021/12/18 06:24:20;;;;;;;6.12;5.20;;;;;;;;;;143741;703;46020;-55
2021/12/18 06:26:47;;;;;;;9.23;6.18;;;;;;;;;;143738;575;47020;-55
2021/12/18 06:29:17;;;;;;;8.52;5.62;;;;;;;;;;143739;657;47010;-55
2021/12/18 06:31:44;;;;;;;8.02;5.82;;;;;;;;;;143736;602;46020;-55
2021/12/18 06:34:14;;;;;;;8.30;5.87;;;;;;;;;;143740;575;46020;-55
2021/12/18 06:36:41;;;;;;;10.32;6.10;;;;;;;;;;143739;579;47023;-55
2021/12/18 06:39:09;;;;;;;13.13;6.75;;;;;;;;;;143734;601;47010;-55
2021/12/18 06:41:36;;;;;;;10.77;5.75;;;;;;;;;;143734;733;46020;-55
2021/12/18 06:44:03;;;;;;;9.93;6.28;;;;;;;;;;143742;583;46021;-56
2021/12/18 06:46:33;;;;;;;9.63;6.70;;;;;;;;;;143741;596;47020;-55
2021/12/18 06:49:00;;;;;;;10.48;7.10;;;;;;;;;;143738;584;47011;-55
2021/12/18 06:51:27;;;;;;;9.75;6.18;;;;;;;;;;143735;614;46021;-54
2021/12/18 06:53:54;;;;;;;10.65;6.95;;;;;;;;;;143741;575;46020;-54
2021/12/18 06:56:21;;;;;;;12.50;6.70;;;;;;;;;;143736;574;47022;-54
2021/12/18 06:58:48;;;;;;;13.05;8.85;;;;;;;;;;143736;579;47010;-54
2021/12/18 07:01:15;;;;;;;13.85;6.12;;;;;;;;;;143737;594;46020;-54
2021/12/18 07:03:42;;;;;;;11.15;7.15;;;;;;;;;;143740;638;46020;-54
2021/12/18 07:06:09;;;;;;;12.95;6.85;;;;;;;;;;143732;605;47021;-54
2021/12/18 07:08:36;;;;;;;11.07;7.32;;;;;;;;;;143737;575;47010;-55
2021/12/18 07:11:03;;;;;;;10.30;6.85;;;;;;;;;;143738;572;46020;-54
2021/12/18 07:13:30;;;;;;;10.63;6.78;;;;;;;;;;143739;617;46021;-54
2021/12/18 07:16:00;;;;;;;14.65;7.15;;;;;;;;;;143736;598;47023;-54
2021/12/18 07:18:27;;;;;;;10.68;7.12;;;;;;;;;;143735;582;47010;-54
2021/12/18 07:20:54;;;;;;;12.27;7.45;;;;;;;;;;143737;689;46021;-54
2021/12/18 07:23:21;;;;;;;11.63;6.53;;;;;;;;;;143742;569;46020;-56
2021/12/18 07:25:48;;;;;;;9.77;6.93;;;;;;;;;;143738;591;47020;-55
2021/12/18 07:28:15;;;;;;;13.50;6.78;;;;;;;;;;143736;590;47010;-55
2021/12/18 07:30:42;;;;;;;10.70;7.43;;;;;;;;;;143733;575;46020;-54
2021/12/18 07:33:11;;;;;;;8.55;6.25;;;;;;;;;;143741;587;46020;-55
2021/12/18 07:35:39;;;;;;;10.07;7.07;;;;;;;;;;143738;599;47022;-54
2021/12/18 07:38:06;;;;;;;14.05;8.35;;;;;;;;;;143734;741;47010;-55
2021/12/18 07:40:33;;;;;;;16.17;7.60;;;;;;;;;;143737;565;46020;-55
2021/12/18 07:43:00;;;;;;;14.70;6.97;;;;;;;;;;143740;564;46020;-55
2021/12/18 07:45:28;;;;;;;10.05;7.57;;;;;;;;;;143738;571;46022;-55
2021/12/18 07:47:57;;;;;;;12.18;6.45;;;;;;;;;;143736;610;47010;-55
2021/12/18 07:50:25;;;;;;;9.45;6.97;;;;;;;;;;143738;581;46021;-56
2021/12/18 07:52:52;;;;;;;10.63;7.25;;;;;;;;;;143739;564;46020;-56
2021/12/18 07:55:19;;;;;;;11.57;7.68;;;;;;;;;;143732;693;47022;-56
2021/12/18 07:57:46;;;;;;;11.52;8.50;;;;;;;;;;143737;576;47010;-56
2021/12/18 08:00:16;;;;;;;17.37;8.60;;;;;;;;;;143738;597;46020;-55
2021/12/18 08:02:42;;;;;;;16.48;10.85;;;;;;;;;;143740;616;46020;-55
2021/12/18 08:05:10;;;;;;;11.07;7.05;;;;;;;;;;143732;710;47022;-54
2021/12/18 08:07:37;;;;;;;10.45;7.15;;;;;;;;;;143736;629;47010;-55
2021/12/18 08:10:05;;;;;;;11.77;7.57;;;;;;;;;;143736;594;46020;-55
2021/12/18 08:12:32;;;;;;;12.05;7.95;;;;;;;;;;143739;664;46021;-54
2021/12/18 08:15:00;;;;;;;14.48;7.70;;;;;;;;;;143738;569;47020;-54
2021/12/18 08:17:27;;;;;;;11.20;7.80;;;;;;;;;;143735;577;47010;-55
2021/12/18 08:19:56;;;;;;;11.80;7.53;;;;;;;;;;143729;577;46021;-55
2021/12/18 08:22:23;;;;;;;9.43;6.70;;;;;;;;;;143739;594;46020;-55
2021/12/18 08:24:50;;;;;;;12.55;6.87;;;;;;;;;;143739;613;47022;-55
2021/12/18 08:27:17;;;;;;;11.02;6.55;;;;;;;;;;143734;585;47010;-55
2021/12/18 08:29:44;;;;;;;9.90;6.20;;;;;;;;;;143737;597;46020;-54
2021/12/18 08:32:11;;;;;;;11.30;7.28;;;;;;;;;;143741;589;46020;-55
2021/12/18 08:34:38;;;;;;;9.02;6.85;;;;;;;;;;143737;627;47021;-55
2021/12/18 08:37:05;;;;;;;9.38;6.18;;;;;;;;;;143737;564;47010;-55
2021/12/18 08:39:32;;;;;;;12.30;6.15;;;;;;;;;;143737;585;46020;-54
2021/12/18 08:42:03;;;;;;;10.93;6.72;;;;;;;;;;143735;653;47021;-54
2021/12/18 08:44:30;;;;;;;11.70;6.28;;;;;;;;;;143730;586;48020;-55
2021/12/18 08:46:57;;;;;;;9.88;6.28;;;;;;;;;;143734;590;47010;-55
2021/12/18 08:49:30;;;;;;;11.45;6.18;;;;;;;;;;143737;692;46020;-54
2021/12/18 08:52:00;;;;;;;11.25;6.37;;;;;;;;;;143739;595;46021;-55
2021/12/18 08:54:27;;;;;;;10.68;6.20;;;;;;;;;;143738;600;47020;-54
2021/12/18 08:56:54;;;;;;;10.07;6.32;;;;;;;;;;143735;599;46029;-54
2021/12/18 08:59:21;;;;;;;7.35;5.70;;;;;;;;;;143737;596;46020;-54
2021/12/18 09:01:49;;;;;;;10.10;6.75;;;;;;;;;;143740;596;46020;-55
2021/12/18 09:04:16;;;;;;;16.42;7.25;;;;;;;;;;143737;579;47021;-55
2021/12/18 09:06:43;;;;;;;17.37;6.90;;;;;;;;;;143734;586;47010;-55
2021/12/18 09:09:10;;;;;;;9.50;6.32;;;;;;;;;;143734;577;46020;-55
2021/12/18 09:11:37;;;;;;;9.63;6.25;;;;;;;;;;143740;575;46020;-54
2021/12/18 09:14:04;;;;;;;10.57;6.00;;;;;;;;;;143739;612;47020;-54
2021/12/18 09:16:32;;;;;;;9.32;6.12;;;;;;;;;;143735;600;47010;-54
2021/12/18 09:19:00;;;;;;;11.60;5.53;;;;;;;;;;143737;570;46020;-54
2021/12/18 09:21:27;;;;;;;11.73;6.40;;;;;;;;;;143735;661;46020;-54
2021/12/18 09:23:54;;;;;;;10.43;6.28;;;;;;;;;;143737;582;47020;-54
2021/12/18 09:26:21;;;;;;;9.55;5.90;;;;;;;;;;143734;716;47010;-54
2021/12/18 09:28:48;;;;;;;9.52;5.62;;;;;;;;;;143737;564;46021;-54
2021/12/18 09:31:15;;;;;;;7.80;5.03;;;;;;;;;;143741;581;46020;-54
2021/12/18 09:33:42;;;;;;;8.70;5.05;;;;;;;;;;143732;601;47022;-53
2021/12/18 09:36:19;;;;;;;16.48;9.60;;;;;;;;;;143737;585;47028;-54
2021/12/18 09:38:46;;;;;;;10.88;7.00;;;;;;;;;;143736;710;46020;-54
2021/12/18 09:41:14;;;;;;;12.07;6.90;;;;;;;;;;143739;624;46020;-55
2021/12/18 09:43:41;;;;;;;16.10;6.93;;;;;;;;;;143734;566;47020;-56
2021/12/18 09:46:14;;;;;;;15.25;7.12;;;;;;;;;;143736;602;47010;-55
2021/12/18 09:48:44;;;;;;;19.42;6.65;;;;;;;;;;143738;581;46020;-55
2021/12/18 09:51:22;;;;;;;10.32;5.87;;;;;;;;;;143741;615;46021;-55
2021/12/18 09:53:52;;;;;;;9.60;6.15;;;;;;;;;;143738;582;47020;-55
2021/12/18 09:56:19;;;;;;;14.87;6.50;;;;;;;;;;143738;564;47010;-55
2021/12/18 09:58:47;;;;;;;9.77;5.82;;;;;;;;;;143735;570;46021;-56
2021/12/18 10:01:14;;;;;;;11.30;5.78;;;;;;;;;;143740;668;46020;-55
2021/12/18 10:03:49;;;;;;;9.38;6.25;;;;;;;;;;143737;661;47022;-55
2021/12/18 10:06:44;;;;;;;12.73;6.00;;;;;;;;;;143738;625;47010;-56
2021/12/18 10:09:31;;;;;;;8.00;5.82;;;;;;;;;;143739;569;46020;-56
2021/12/18 10:12:25;;;;;;;12.80;5.97;;;;;;;;;;143726;587;46021;-56
2021/12/18 10:14:58;;;;;;;9.73;5.25;;;;;;;;;;143734;607;47022;-56
2021/12/18 10:18:03;;;;;;;11.60;6.25;;;;;;;;;;143738;606;47010;-56
2021/12/18 10:20:30;;;;;;;12.43;6.78;;;;;;;;;;143737;584;46021;-56
2021/12/18 10:23:04;;;;;;;8.65;5.43;;;;;;;;;;143741;604;46020;-56
2021/12/18 10:25:42;;;;;;;9.48;5.40;;;;;;;;;;143734;583;47021;-56
2021/12/18 10:28:15;;;;;;;9.77;5.55;;;;;;;;;;143737;571;47010;-56
2021/12/18 10:30:51;;;;;;;7.05;5.15;;;;;;;;;;143739;571;46020;-57
2021/12/18 10:33:25;;;;;;;10.60;5.95;;;;;;;;;;143740;573;46020;-57
2021/12/18 10:35:55;;;;;;;9.80;5.90;;;;;;;;;;143738;571;47020;-57
2021/12/18 10:38:49;;;;;;;11.30;5.93;;;;;;;;;;143739;596;47010;-57
2021/12/18 10:41:27;;;;;;;10.73;5.80;;;;;;;;;;143738;594;46020;-57
2021/12/18 10:44:09;;;;;;;9.00;4.75;;;;;;;;;;143741;617;46021;-58
2021/12/18 10:46:41;;;;;;;9.43;5.45;;;;;;;;;;143739;624;47022;-58
2021/12/18 10:49:16;;;;;;;11.88;5.35;;;;;;;;;;143741;569;46021;-58
2021/12/18 10:51:45;;;;;;;10.48;6.05;;;;;;;;;;143734;616;46020;-58
2021/12/18 10:54:23;;;;;;;10.25;5.10;;;;;;;;;;143739;578;46020;-58
2021/12/18 10:56:52;;;;;;;7.60;5.07;;;;;;;;;;143736;581;47023;-59
2021/12/18 10:59:36;;;;;;;7.85;5.07;;;;;;;;;;143737;576;47010;-58
2021/12/18 11:02:05;;;;;;;7.07;4.87;;;;;;;;;;143737;647;46020;-58
2021/12/18 11:04:40;;;;;;;9.35;4.90;;;;;;;;;;143742;626;46021;-58
2021/12/18 11:07:22;;;;;;;7.20;5.10;;;;;;;;;;143730;575;49020;-59
2021/12/18 11:10:11;;;;;;;9.02;4.90;;;;;;;;;;143724;618;47010;-58
2021/12/18 11:15:21;;;;;;;10.85;4.93;;;;;;;;;;143728;615;47010;-58
2021/12/18 11:17:48;;;;;;;8.50;5.03;;;;;;;;;;143723;607;47022;-59
2021/12/18 11:20:15;;;;;;;8.18;5.12;;;;;;;;;;143722;569;47012;-59
2021/12/18 11:22:42;;;;;;;8.60;4.87;;;;;;;;;;143727;575;46020;-58
2021/12/18 11:25:11;;;;;;;10.07;5.70;;;;;;;;;;143727;637;46020;-59
2021/12/18 11:27:39;;;;;;;10.30;5.82;;;;;;;;;;143725;587;47020;-60
2021/12/18 11:30:14;;;;;;;12.98;6.62;;;;;;;;;;143724;569;47021;-59
2021/12/18 11:32:54;;;;;;;12.27;6.68;;;;;;;;;;143726;622;46020;-59
2021/12/18 11:35:23;;;;;;;11.12;5.75;;;;;;;;;;143729;594;46021;-59
2021/12/18 11:38:02;;;;;;;10.60;6.12;;;;;;;;;;143726;589;47020;-59
2021/12/18 11:40:32;;;;;;;13.48;6.12;;;;;;;;;;143726;606;47012;-59
2021/12/18 11:42:59;;;;;;;8.48;5.47;;;;;;;;;;143726;570;46021;-59
2021/12/18 11:45:35;;;;;;;7.18;4.95;;;;;;;;;;143725;598;46020;-59
2021/12/18 11:48:03;;;;;;;11.18;5.53;;;;;;;;;;143726;662;47021;-59
2021/12/18 11:50:36;;;;;;;11.45;5.78;;;;;;;;;;143724;640;47012;-59
2021/12/18 11:53:11;;;;;;;10.50;5.40;;;;;;;;;;143727;576;46020;-59
2021/12/18 11:56:10;;;;;;;10.23;5.78;;;;;;;;;;143728;571;46020;-60
2021/12/18 11:58:43;;;;;;;7.47;4.72;;;;;;;;;;143725;585;47025;-59
2021/12/18 12:01:30;;;;;;;7.72;5.18;;;;;;;;;;143725;577;47012;-60
2021/12/18 12:03:59;;;;;;;7.85;5.05;;;;;;;;;;143725;591;46023;-59
2021/12/18 12:06:46;;;;;;;9.30;5.20;;;;;;;;;;143731;587;46020;-60
2021/12/18 12:09:32;;;;;;;8.32;4.85;;;;;;;;;;143733;569;47024;-58
2021/12/18 12:12:07;;;;;;;6.82;4.80;;;;;;;;;;143739;640;47012;-60
2021/12/18 12:14:41;;;;;;;9.93;5.10;;;;;;;;;;143738;585;46020;-59
2021/12/18 12:17:25;;;;;;;17.45;5.80;;;;;;;;;;143744;593;46020;-61
2021/12/18 12:19:58;;;;;;;11.43;5.50;;;;;;;;;;143738;564;47020;-60
2021/12/18 12:23:02;;;;;;;7.40;5.32;;;;;;;;;;143738;658;47012;-60
2021/12/18 12:25:56;;;;;;;9.02;5.43;;;;;;;;;;143742;589;46020;-59
2021/12/18 12:28:25;;;;;;;8.93;5.82;;;;;;;;;;143744;599;46020;-60
2021/12/18 12:31:10;;;;;;;11.63;6.60;;;;;;;;;;143741;564;47022;-60
2021/12/18 12:33:41;;;;;;;10.23;6.22;;;;;;;;;;143738;574;47012;-61
2021/12/18 12:36:15;;;;;;;7.43;5.22;;;;;;;;;;143736;565;46020;-58
2021/12/18 12:38:59;;;;;;;7.15;4.95;;;;;;;;;;143743;597;46020;-57
2021/12/18 12:41:33;;;;;;;10.65;5.93;;;;;;;;;;143733;612;47021;-56
2021/12/18 12:44:16;;;;;;;23.75;15.05;;;;;;;;;;143737;564;47012;-59
2021/12/18 12:46:45;;;;;;;9.95;5.57;;;;;;;;;;143735;650;46020;-58
2021/12/18 12:49:20;;;;;;;10.15;6.30;;;;;;;;;;143743;564;46021;-59
2021/12/18 12:52:08;;;;;;;15.95;8.77;;;;;;;;;;143738;634;47020;-60
2021/12/18 12:54:57;;;;;;;30.75;17.92;;;;;;;;;;143737;626;47013;-59
2021/12/18 12:57:35;;;;;;;15.68;9.02;;;;;;;;;;143735;603;46021;-59
2021/12/18 13:00:34;;;;;;;16.17;9.57;;;;;;;;;;143743;604;46020;-59
2021/12/18 13:03:09;;;;;;;9.75;5.25;;;;;;;;;;143735;604;47021;-60
2021/12/18 13:05:51;;;;;;;13.75;8.02;;;;;;;;;;143741;644;47012;-59
2021/12/18 13:08:19;;;;;;;6.82;4.45;;;;;;;;;;143733;595;46020;-59
2021/12/18 13:10:48;;;;;;;8.85;5.30;;;;;;;;;;143739;600;46021;-58
2021/12/18 13:13:20;;;;;;;9.55;5.65;;;;;;;;;;143736;644;47022;-58
2021/12/18 13:16:20;;;;;;;9.35;4.78;;;;;;;;;;143733;598;47012;-59
2021/12/18 13:18:51;;;;;;;8.43;5.32;;;;;;;;;;143735;573;46023;-56
2021/12/18 13:21:29;;;;;;;10.43;5.45;;;;;;;;;;143738;676;47020;-58
2021/12/18 13:24:07;;;;;;;9.43;5.95;;;;;;;;;;143732;583;47022;-57
2021/12/18 13:26:45;;;;;;;10.15;5.25;;;;;;;;;;143732;614;47013;-56
2021/12/18 13:29:18;;;;;;;6.90;4.57;;;;;;;;;;143729;579;46020;-57
2021/12/18 13:31:54;;;;;;;7.35;5.10;;;;;;;;;;143740;570;46020;-57
2021/12/18 13:34:24;;;;;;;7.53;4.57;;;;;;;;;;143737;581;47020;-56
2021/12/18 13:36:57;;;;;;;8.18;4.80;;;;;;;;;;143733;588;47012;-58
2021/12/18 13:39:30;;;;;;;9.88;6.07;;;;;;;;;;143736;590;46021;-57
2021/12/18 13:42:01;;;;;;;7.45;5.28;;;;;;;;;;143739;564;46021;-56
2021/12/18 13:45:01;;;;;;;8.50;4.97;;;;;;;;;;143737;575;47022;-57
2021/12/18 13:47:34;;;;;;;8.68;6.00;;;;;;;;;;143734;580;47023;-57
2021/12/18 13:50:18;;;;;;;9.88;6.25;;;;;;;;;;143736;579;46021;-57
2021/12/18 13:52:54;;;;;;;12.57;9.75;;;;;;;;;;143740;565;47020;-56
2021/12/18 13:55:51;;;;;;;16.58;8.45;;;;;;;;;;143730;615;47023;-56
2021/12/18 13:58:30;;;;;;;6.90;4.90;;;;;;;;;;143731;592;47012;-56
2021/12/18 14:01:19;;;;;;;7.55;5.10;;;;;;;;;;143735;599;46022;-56
2021/12/18 14:03:57;;;;;;;9.75;5.35;;;;;;;;;;143740;607;46019;-56
2021/12/18 14:06:37;;;;;;;7.40;4.70;;;;;;;;;;143737;602;47020;-56
2021/12/18 14:09:09;;;;;;;6.30;4.95;;;;;;;;;;143739;569;47013;-56
2021/12/18 14:11:41;;;;;;;6.60;4.87;;;;;;;;;;143739;587;46021;-56
2021/12/18 14:14:11;;;;;;;7.75;4.45;;;;;;;;;;143745;586;46020;-56
2021/12/18 14:16:52;;;;;;;7.57;4.72;;;;;;;;;;143741;573;47021;-57
2021/12/18 14:19:34;;;;;;;11.88;4.62;;;;;;;;;;143742;585;46020;-57
2021/12/18 14:22:01;;;;;;;6.40;4.60;;;;;;;;;;143735;646;46020;-57
2021/12/18 14:24:28;;;;;;;5.37;4.00;;;;;;;;;;143743;597;46020;-57
2021/12/18 14:27:06;;;;;;;5.85;4.03;;;;;;;;;;143741;587;47020;-57
2021/12/18 14:29:38;;;;;;;7.50;4.62;;;;;;;;;;143738;627;47012;-56
2021/12/18 14:32:08;;;;;;;5.85;3.83;;;;;;;;;;143740;612;46020;-57
2021/12/18 14:34:37;;;;;;;6.35;4.32;;;;;;;;;;143742;585;46021;-57
2021/12/18 14:37:10;;;;;;;8.70;3.87;;;;;;;;;;143741;609;47020;-57
2021/12/18 14:39:58;;;;;;;5.72;3.97;;;;;;;;;;143738;619;47012;-56
2021/12/18 14:42:37;;;;;;;6.57;4.20;;;;;;;;;;143738;622;46020;-56
2021/12/18 14:45:11;;;;;;;6.40;4.03;;;;;;;;;;143745;574;46020;-55
2021/12/18 14:47:49;;;;;;;5.47;3.80;;;;;;;;;;143733;565;47023;-56
2021/12/18 14:50:20;;;;;;;5.60;4.20;;;;;;;;;;143737;653;47012;-55
2021/12/18 14:53:10;;;;;;;6.10;4.65;;;;;;;;;;143741;694;46020;-55
2021/12/18 14:55:52;;;;;;;9.13;4.45;;;;;;;;;;143742;579;46021;-55
2021/12/18 14:58:33;;;;;;;8.10;4.55;;;;;;;;;;143741;604;47020;-55
2021/12/18 15:01:19;;;;;;;5.45;4.12;;;;;;;;;;143740;609;47012;-56
2021/12/18 15:03:52;;;;;;;5.95;4.60;;;;;;;;;;143738;579;46023;-55
2021/12/18 15:06:34;;;;;;;6.53;4.72;;;;;;;;;;143744;569;46020;-55
2021/12/18 15:09:12;;;;;;;7.10;4.72;;;;;;;;;;143740;564;47021;-54
2021/12/18 15:11:47;;;;;;;5.90;4.75;;;;;;;;;;143739;606;47012;-55
2021/12/18 15:14:15;;;;;;;;;;;;;;;;;;143738;982;46020;-55
2021/12/18 15:17:19;;;;;;;6.45;4.95;;;;;;;;;;143748;569;46020;-55
2021/12/18 15:19:46;;;;;;;6.55;4.57;;;;;;;;;;143739;606;47025;-56
2021/12/18 15:22:16;;;;;;;6.50;4.40;;;;;;;;;;143740;597;47012;-55
2021/12/18 15:24:44;;;;;;;6.37;4.85;;;;;;;;;;143738;599;46020;-56
2021/12/18 15:27:12;;;;;;;9.77;4.57;;;;;;;;;;143743;566;46020;-56
2021/12/18 15:29:42;;;;;;;7.95;4.30;;;;;;;;;;143740;602;47022;-56
2021/12/18 15:32:09;;;;;;;4.80;3.70;;;;;;;;;;143738;577;47013;-55
2021/12/18 15:34:37;;;;;;;7.10;3.50;;;;;;;;;;143740;575;46020;-56
2021/12/18 15:37:09;;;;;;;7.25;4.25;;;;;;;;;;143744;761;46020;-56
2021/12/18 15:39:38;;;;;;;4.40;3.12;;;;;;;;;;143735;596;47021;-56
2021/12/18 15:42:06;;;;;;;6.40;3.67;;;;;;;;;;143738;569;47012;-55
2021/12/18 15:44:35;;;;;;;6.20;4.00;;;;;;;;;;143739;604;46020;-56
2021/12/18 15:47:02;;;;;;;4.93;3.20;;;;;;;;;;143741;580;46021;-56
2021/12/18 15:49:29;;;;;;;6.05;3.40;;;;;;;;;;143740;577;47020;-56
2021/12/18 15:51:57;;;;;;;3.58;2.70;;;;;;;;;;143738;574;47012;-56
2021/12/18 15:54:25;;;;;;;3.92;3.00;;;;;;;;;;143740;592;46021;-56